• Join FlightAware (Why Join?)
  • Login
  • US Flag 
05:15AM EDT


 

Airport Tracker/Info


-or-


 

Live Flight TrackerFlight Track Log ✈ N143DE ✈ 19-Oct-2013 ✈ KRYY - KPMU

Flight Track Log - Related Links

Times and Time Zones

All times are in EDT time to prevent confusion due to time zone crossing. See the N143DE flight status page for this flight to view local times or setup timezone preferences in your user account.

Time Position Orientation Groundspeed Altitude Reporting Facility
EDT Latitude Longitude Course Direction KTS MPH feet Rate Location/Type
06:18AM 34.0333 -84.5833 270° West 149 171 3,800  Level Atlanta TRACON
06:18AM 34.0333 -84.6167 270° West 119 137 5,600 1,920 Climbing Atlanta TRACON
06:19AM 34.0392 -84.6456 284° West 127 146 6,700 1,860 Climbing Atlanta Center
06:20AM 34.0431 -84.6906 276° West 127 146 8,600 1,860 Climbing Atlanta Center
06:21AM 34.0406 -84.7358 266° West 134 154 10,500 1,560 Climbing Atlanta Center
06:22AM 34.0361 -84.7808 263° West 145 167 11,800 1,440 Climbing Atlanta Center
06:23AM 34.0317 -84.8358 264° West 155 178 13,400 1,380 Climbing Atlanta Center
06:24AM 34.0314 -84.8886 270° West 161 185 14,600 1,200 Climbing Atlanta Center
06:25AM 34.0289 -84.9436 267° West 161 185 15,800 1,140 Climbing Atlanta Center
06:26AM 34.0286 -84.9964 270° West 161 185 16,900 1,140 Climbing Atlanta Center
06:27AM 34.0258 -85.0514 272° West 161 185 18,100 1,080 Climbing Atlanta Center
06:28AM 34.0233 -85.1039 267° West 161 185 19,100 1,020 Climbing Atlanta Center
06:29AM 34.0231 -85.1567 270° West 156 180 20,200 900 Climbing Atlanta Center
06:30AM 34.0203 -85.2092 266° West 156 180 21,000 780 Climbing Atlanta Center
06:31AM 34.0178 -85.2594 267° West 156 180 21,800 720 Climbing Atlanta Center
06:32AM 34.0172 -85.3144 269° West 161 185 22,500 600 Climbing Atlanta Center
06:33AM 34.0147 -85.3669 267° West 161 185 23,100 240 Climbing Atlanta Center
06:34AM 34.0075 -85.4344 263° West 172 198 23,000 240 Descending Atlanta Center
06:35AM 34.0069 -85.4972 269° West 186 214 23,600 480 Climbing Atlanta Center
06:36AM 34.0042 -85.5547 267° West 186 214 24,000 180 Climbing Atlanta Center
06:37AM 34.0011 -85.6175 267° West 181 208 24,000  Level Atlanta Center
06:38AM 33.9983 -85.6825 267° West 186 214 24,000  Level Atlanta Center
06:39AM 33.9975 -85.7475 269° West 198 228 24,000  Level Atlanta Center
06:40AM 33.9944 -85.8053 266° West 198 228 24,000  Level Atlanta Center
06:41AM 33.9872 -85.8728 263° West 193 222 24,000  Level Atlanta Center
06:42AM 33.9822 -85.9378 265° West 199 229 24,000  Level Atlanta Center
06:43AM 33.9811 -86.0028 269° West 199 229 24,000  Level Atlanta Center
06:44AM 33.9758 -86.0678 264° West 199 229 24,000  Level Atlanta Center
06:45AM 33.9811 -86.1331 276° West 199 229 24,000  Level Atlanta Center
06:46AM 33.9944 -86.2011 283° West 199 229 24,000  Level Atlanta Center
06:47AM 33.9997 -86.2639 276° West 199 229 24,000  Level Atlanta Center
06:48AM 34.0089 -86.3267 280° West 199 229 24,000  Level Atlanta Center
06:49AM 34.0139 -86.3919 275° West 199 229 24,000  Level Atlanta Center
06:50AM 34.0231 -86.4575 280° West 199 229 24,000  Level Atlanta Center
06:51AM 34.0281 -86.5203 276° West 199 229 24,000  Level Atlanta Center
06:52AM 34.0353 -86.5831 278° West 199 229 24,000  Level Atlanta Center
06:53AM 34.0419 -86.6511 277° West 199 229 24,000  Level Atlanta Center
06:54AM 34.0492 -86.7139 278° West 199 229 24,000  Level Atlanta Center
06:55AM 34.0561 -86.7792 277° West 199 229 24,000  Level Atlanta Center
06:57AM 34.0681 -86.8994 277° West 207 238 24,000  Level Memphis Center
06:58AM 34.0783 -86.9692 280° West 207 238 24,000  Level Memphis Center
06:59AM 34.0842 -87.0292 277° West 207 238 24,000  Level Memphis Center
07:00AM 34.0903 -87.0992 276° West 197 227 24,000  Level Memphis Center
07:01AM 34.0961 -87.1642 276° West 208 239 24,000  Level Memphis Center
07:02AM 34.1039 -87.2267 279° West 198 228 24,000  Level Memphis Center
07:03AM 34.1139 -87.2939 280° West 198 228 24,000  Level Memphis Center
07:04AM 34.1178 -87.3614 274° West 203 234 24,000  Level Memphis Center
07:05AM 34.1297 -87.4289 282° West 203 234 24,000  Level Memphis Center
07:06AM 34.1356 -87.4989 276° West 203 234 24,000  Level Memphis Center
07:07AM 34.1433 -87.5689 278° West 203 234 24,000  Level Memphis Center
07:08AM 34.1511 -87.6364 278° West 198 228 24,000  Level Memphis Center
07:09AM 34.1567 -87.7039 276° West 198 228 24,000  Level Memphis Center
07:10AM 34.1622 -87.7667 276° West 198 228 24,000 -60 Level Memphis Center
07:11AM 34.1700 -87.8342 278° West 198 228 23,900  Descending Memphis Center
07:12AM 34.1797 -87.8992 280° West 198 228 24,000  Climbing Memphis Center
07:13AM 34.1850 -87.9667 275° West 198 228 24,000  Level Memphis Center
07:14AM 34.1906 -88.0344 276° West 198 228 24,000 -60 Level Memphis Center
07:15AM 34.2000 -88.0994 280° West 198 228 23,900 -60 Descending Memphis Center
07:16AM 34.2011 -88.1622 271° West 198 228 23,900  Level Memphis Center
07:17AM 34.2108 -88.2297 280° West 203 234 24,000  Climbing Memphis Center
07:18AM 34.2161 -88.3000 275° West 203 234 23,900 -60 Descending Memphis Center
07:19AM 34.2233 -88.3650 278° West 203 234 23,900  Level Memphis Center
07:20AM 34.2308 -88.4328 278° West 203 234 23,900 -660 Level Memphis Center
07:21AM 34.2339 -88.5056 273° West 203 234 22,600 -1,440 Descending Memphis Center
07:22AM 34.2436 -88.5883 278° West 227 261 21,100 -1,080 Descending Memphis Center
07:23AM 34.2528 -88.6633 278° West 235 270 20,500 -780 Descending Memphis Center
07:24AM 34.2767 -88.7233 296° West 215 247 19,600 -1,020 Descending Memphis Center
07:25AM 34.2919 -88.7833 287° West 203 234 18,500 -1,440 Descending Memphis Center
07:26AM 34.3011 -88.8436 280° West 177 204 16,800 -1,740 Descending Memphis Center
07:27AM 34.3164 -88.8986 289° West 171 197 15,100 -1,740 Descending Memphis Center
07:28AM 34.3339 -88.9586 289° West 182 209 13,400 -1,740 Descending Memphis Center
07:29AM 34.3492 -89.0239 286° West 199 229 11,700 -1,620 Descending Memphis Center
07:30AM 34.3706 -89.0864 293° West 206 237 10,200 -1,500 Descending Memphis Center
07:31AM 34.3858 -89.1439 288° West 206 237 8,800 -1,440 Descending Memphis Center
07:32AM 34.4033 -89.2169 286° West 211 243 7,400 -1,320 Descending Memphis Center
07:33AM 34.4206 -89.2897 286° West 222 255 6,200 -1,140 Descending Memphis Center
07:34AM 34.4400 -89.3572 289° West 221 254 5,200 -1,080 Descending Memphis Center
07:35AM 34.4592 -89.4275 288° West 221 254 4,100 -600 Descending Memphis Center
07:36AM 34.4764 -89.4981 287° West 221 254 4,000 -300 Descending Memphis Center
07:37AM 34.4956 -89.5658 289° West 214 246 3,600 -540 Descending Memphis Center
07:38AM 34.5128 -89.6336 287° West 209 241 3,000 -360 Descending Memphis Center
07:39AM 34.5297 -89.6942 289° West 202 232 2,900 -60 Descending Memphis Center
07:40AM 34.5406 -89.7444 285° West 179 206 2,900  Level Memphis Center
07:41AM 34.5533 -89.7897 289° West 155 178 2,900  Level Memphis Center
07:42AM 34.5639 -89.8350 286° West 150 173 2,900  Level Memphis Center
07:43AM 34.6014 -89.8425 351° North 123 142 2,900  Level Memphis Center
07:44AM 34.6306 -89.8194 33° Northeast 117 135 3,000  Climbing Memphis Center
07:45AM 34.6056 -89.8044 154° Southeast 45 52 2,900  Descending Memphis Center
07:46AM 34.5806 -89.8375 227° Southwest 63 72 3,000  Climbing Memphis Center
07:47AM 34.5514 -89.8553 207° Southwest 112 129 2,900 -120 Descending Memphis Center